Time;durP1;ratioP1;P1;durP2;ratioP2;P2;SDS_P1;SDS_P2;PMS_P1;PMS_P2;Temp;Humidity;BMP_temperature;BMP_pressure;BME280_temperature;BME280_humidity;BME280_pressure;Samples;Min_cycle;Max_cycle;Signal;HPM_P1;HPM_P2
2022/02/08 07:52:59;;;;;;;3.30;1.38;;;;;;;-0.24;100.00;96496.94;5130868;27;20387;-61
2022/02/08 07:55:25;;;;;;;1.83;0.80;;;;;;;-0.14;100.00;96494.97;5112499;28;20074;-64
2022/02/08 07:57:51;;;;;;;2.47;1.05;;;;;;;0.05;100.00;96482.47;5101584;27;20015;-66
2022/02/08 08:00:16;;;;;;;1.30;0.70;;;;;;;0.20;100.00;96480.81;5130556;28;20054;-64
2022/02/08 08:02:43;;;;;;;2.90;0.93;;;;;;;0.28;100.00;96471.06;5116259;28;20020;-62
2022/02/08 08:05:09;;;;;;;4.85;1.15;;;;;;;0.31;100.00;96463.81;5108796;28;20467;-59
2022/02/08 08:07:34;;;;;;;2.85;0.90;;;;;;;0.29;100.00;96450.81;5108856;28;20055;-59
2022/02/08 08:10:03;;;;;;;2.55;0.90;;;;;;;0.27;100.00;96444.91;5077258;28;20035;-61
2022/02/08 08:12:30;;;;;;;2.97;1.10;;;;;;;0.27;100.00;96450.16;5085870;28;20051;-59
2022/02/08 08:15:03;;;;;;;1.83;0.85;;;;;;;0.29;100.00;96438.47;5108553;28;20074;-61
2022/02/08 08:19:54;;;;;;;2.00;1.05;;;;;;;0.45;100.00;96437.63;5111060;28;20026;-61
2022/02/08 08:22:20;;;;;;;1.40;0.90;;;;;;;0.50;100.00;96437.09;5089606;28;20390;-60
2022/02/08 08:24:46;;;;;;;4.80;1.25;;;;;;;0.60;100.00;96421.09;5086912;28;20111;-62
2022/02/08 08:27:13;;;;;;;2.97;0.98;;;;;;;0.70;100.00;96427.00;5110568;28;20118;-62
2022/02/08 08:29:39;;;;;;;2.65;0.88;;;;;;;0.71;100.00;96426.00;5106380;28;20027;-62
2022/02/08 08:32:05;;;;;;;2.20;1.05;;;;;;;0.74;100.00;96433.56;5108211;28;20474;-62
2022/02/08 08:34:32;;;;;;;4.03;1.02;;;;;;;0.77;100.00;96435.88;5107441;28;20140;-63
2022/02/08 08:36:58;;;;;;;2.40;0.90;;;;;;;0.95;100.00;96435.63;5072648;28;20173;-63
2022/02/08 08:39:28;;;;;;;2.38;0.80;;;;;;;1.13;100.00;96446.75;5108951;28;20529;-64
2022/02/08 08:42:49;;;;;;;1.77;0.98;;;;;;;1.41;100.00;96447.09;5110681;28;20051;-64
2022/02/08 08:50:16;;;;;;;2.13;0.90;;;;;;;2.51;100.00;96472.16;5098730;28;20100;-62
2022/02/08 08:52:44;;;;;;;1.42;0.70;;;;;;;2.83;100.00;96496.66;5070628;28;20044;-62
2022/02/08 08:55:11;;;;;;;2.30;0.93;;;;;;;3.12;100.00;96511.69;5103686;28;20106;-62
2022/02/08 08:57:37;;;;;;;2.97;0.70;;;;;;;3.42;100.00;96544.28;5087573;28;20085;-63
2022/02/08 09:00:08;;;;;;;1.13;0.68;;;;;;;3.69;100.00;96571.91;5084505;28;20494;-63
2022/02/08 09:02:34;;;;;;;1.23;0.70;;;;;;;3.88;100.00;96586.41;5083839;28;20028;-63
2022/02/08 09:05:01;;;;;;;2.58;0.93;;;;;;;4.00;100.00;96620.19;5074306;28;20031;-61
2022/02/08 09:07:27;;;;;;;3.67;0.80;;;;;;;4.18;100.00;96651.63;5115806;28;20024;-63
2022/02/08 09:09:58;;;;;;;1.45;0.63;;;;;;;4.38;100.00;96678.38;5097595;28;20107;-61
2022/02/08 09:12:51;;;;;;;0.95;0.60;;;;;;;4.56;100.00;96707.16;5115598;28;20177;-60
2022/02/08 09:15:27;;;;;;;1.90;0.70;;;;;;;4.72;100.00;96730.81;5114834;28;20118;-62
2022/02/08 09:18:16;;;;;;;2.85;0.80;;;;;;;4.98;100.00;96743.53;5099675;28;20077;-62
2022/02/08 09:26:15;;;;;;;0.77;0.63;;;;;;;5.26;100.00;96823.31;5105098;28;20374;-62
2022/02/08 09:28:51;;;;;;;0.82;0.43;;;;;;;5.44;100.00;96844.97;5115469;28;20028;-61
2022/02/08 09:31:19;;;;;;;0.68;0.60;;;;;;;5.68;100.00;96869.50;5079627;28;20024;-60
2022/02/08 09:33:47;;;;;;;1.67;0.65;;;;;;;5.71;100.00;96877.09;5086468;28;20103;-61
2022/02/08 09:36:12;;;;;;;2.35;0.88;;;;;;;5.83;100.00;96886.19;5094833;28;20031;-62
2022/02/08 09:38:38;;;;;;;2.10;0.70;;;;;;;5.76;100.00;96890.66;5094885;28;20028;-62
2022/02/08 09:41:04;;;;;;;6.05;0.73;;;;;;;5.97;100.00;96893.34;5094836;28;20016;-62
2022/02/08 09:43:31;;;;;;;3.25;0.60;;;;;;;6.22;100.00;96901.72;5094505;28;20032;-61
2022/02/08 09:46:01;;;;;;;1.70;0.77;;;;;;;6.48;100.00;96909.06;5072607;28;20051;-60
2022/02/08 09:48:42;;;;;;;3.38;0.88;;;;;;;6.66;100.00;96932.53;5087947;28;20020;-61
2022/02/08 09:51:10;;;;;;;1.10;0.70;;;;;;;6.85;100.00;96945.16;5091934;28;20056;-62
2022/02/08 09:53:36;;;;;;;5.60;0.80;;;;;;;6.92;100.00;96966.50;5074974;28;20470;-62
2022/02/08 09:56:04;;;;;;;3.03;0.80;;;;;;;6.90;100.00;96988.00;5057640;28;20039;-63
2022/02/08 09:58:29;;;;;;;2.30;0.73;;;;;;;6.75;100.00;96999.81;5069849;28;20109;-62
2022/02/08 10:01:14;;;;;;;1.20;0.70;;;;;;;6.94;100.00;96993.75;5093347;28;20061;-63
2022/02/08 10:03:59;;;;;;;1.90;0.68;;;;;;;7.19;100.00;97010.13;5074829;28;20070;-64
2022/02/08 10:06:29;;;;;;;2.08;0.90;;;;;;;7.37;99.87;97017.59;5071627;28;20063;-63
2022/02/08 10:08:59;;;;;;;0.95;0.60;;;;;;;7.70;100.00;97010.56;5093126;28;20036;-63
2022/02/08 10:11:30;;;;;;;5.18;1.20;;;;;;;8.00;99.95;97018.25;5076499;28;20081;-63
2022/02/08 10:14:02;;;;;;;1.85;0.80;;;;;;;8.20;97.16;97018.31;5072841;28;20386;-63
2022/02/08 10:22:18;;;;;;;1.90;0.70;;;;;;;8.19;95.27;97036.19;5054761;28;20060;-64
2022/02/08 10:24:49;;;;;;;2.28;0.80;;;;;;;8.46;94.36;97034.41;5091714;28;20058;-63
2022/02/08 10:27:33;;;;;;;1.83;0.95;;;;;;;8.51;92.68;97047.97;5093912;28;20103;-63
2022/02/08 10:38:14;;;;;;;2.40;0.80;;;;;;;9.05;89.37;97052.31;5082155;28;20113;-63
2022/02/08 10:40:40;;;;;;;2.13;0.90;;;;;;;9.13;88.63;97057.47;5097147;28;20056;-63
2022/02/08 10:43:15;;;;;;;2.28;0.90;;;;;;;9.30;90.85;97045.28;5080431;28;20107;-63
2022/02/08 10:45:41;;;;;;;3.50;0.90;;;;;;;9.34;87.43;97059.06;5075116;28;20462;-64
2022/02/08 10:48:22;;;;;;;3.25;1.00;;;;;;;9.20;87.58;97068.13;5064571;28;20119;-63
2022/02/08 10:50:54;;;;;;;2.20;0.93;;;;;;;9.16;88.41;97070.41;5103841;28;20024;-63
2022/02/08 10:53:23;;;;;;;2.45;0.80;;;;;;;9.06;87.35;97064.66;5099298;28;20110;-64
2022/02/08 10:56:06;;;;;;;3.35;0.93;;;;;;;9.30;88.51;97057.81;5108541;28;20034;-63
2022/02/08 10:58:43;;;;;;;;;;;;;;;9.38;87.97;97056.78;5103775;28;20459;-63
2022/02/08 11:01:18;;;;;;;3.80;1.05;;;;;;;9.52;90.16;97053.06;5100835;28;20301;-64
2022/02/08 11:03:56;;;;;;;2.42;1.00;;;;;;;9.51;84.71;97056.75;5074103;28;20588;-64
2022/02/08 11:06:37;;;;;;;4.60;1.10;;;;;;;9.63;82.48;97062.28;5074431;28;20023;-64
2022/02/08 11:15:25;;;;;;;1.63;1.27;;;;;;;9.48;83.76;97049.97;5096491;28;20028;-64
2022/02/08 11:20:34;;;;;;;3.65;1.10;;;;;;;9.58;87.37;97039.66;5093049;28;20038;-64
2022/02/08 11:23:11;;;;;;;3.60;1.30;;;;;;;9.87;81.71;97048.19;5093028;28;20016;-64
2022/02/08 11:25:40;;;;;;;3.75;1.50;;;;;;;10.07;79.83;97050.78;5071027;28;20020;-64
2022/02/08 11:29:00;;;;;;;2.47;1.00;;;;;;;10.08;80.54;97049.75;5091645;28;20111;-64
2022/02/08 11:41:02;;;;;;;3.00;1.10;;;;;;;10.19;83.61;97027.66;5092975;28;20035;-64
2022/02/08 11:53:36;;;;;;;2.88;1.20;;;;;;;10.62;80.22;97025.13;5092464;28;20127;-64
2022/02/08 11:58:55;;;;;;;2.13;1.25;;;;;;;10.38;79.78;97031.28;5091328;28;20432;-64
2022/02/08 12:02:05;;;;;;;5.03;1.02;;;;;;;10.36;81.04;97022.66;5083934;28;20020;-64
2022/02/08 12:04:43;;;;;;;3.47;1.25;;;;;;;10.36;79.65;97020.78;5083334;28;20518;-64
2022/02/08 12:07:17;;;;;;;7.60;1.88;;;;;;;10.56;78.35;97020.66;5079428;28;20494;-64
2022/02/08 12:09:54;;;;;;;1.85;1.17;;;;;;;10.53;76.38;97026.47;5092156;28;20024;-63
2022/02/08 12:35:04;;;;;;;4.82;0.90;;;;;;;11.06;73.53;96999.19;5095850;28;20496;-64
2022/02/08 12:53:49;;;;;;;3.03;1.20;;;;;;;11.23;72.67;96988.72;5096168;28;20036;-63
2022/02/08 12:59:37;;;;;;;2.08;1.02;;;;;;;11.53;66.83;96986.97;5088403;28;20035;-64
2022/02/08 13:02:31;;;;;;;2.65;1.10;;;;;;;11.64;68.06;96977.34;5098434;28;20474;-64
2022/02/08 14:02:02;;;;;;;1.92;0.80;;;;;;;11.80;58.33;96965.19;5092327;28;20027;-61
2022/02/08 14:07:19;;;;;;;2.50;1.13;;;;;;;11.44;59.51;96963.34;5094182;28;20040;-61
2022/02/08 14:22:35;;;;;;;1.40;0.73;;;;;;;11.50;54.72;96963.22;5094175;28;20152;-62
2022/02/08 14:25:46;;;;;;;1.85;0.80;;;;;;;11.63;57.39;96959.59;5093753;28;20034;-62
2022/02/08 14:30:52;;;;;;;2.58;1.00;;;;;;;11.50;56.80;96952.50;5079392;28;20036;-63
2022/02/08 15:10:31;;;;;;;2.35;0.65;;;;;;;10.55;53.98;96944.00;5092029;28;20020;-65
2022/02/08 15:13:00;;;;;;;0.95;0.70;;;;;;;10.44;55.24;96942.03;5093099;28;20020;-65
2022/02/08 15:17:51;;;;;;;1.33;0.80;;;;;;;10.24;53.78;96936.00;5083182;28;20025;-65
2022/02/08 15:20:19;;;;;;;2.17;0.80;;;;;;;10.07;55.12;96935.66;5092986;28;20024;-65
2022/02/08 15:22:44;;;;;;;2.25;0.68;;;;;;;9.99;55.38;96935.94;5091162;28;20028;-65
2022/02/08 15:25:12;;;;;;;3.90;1.48;;;;;;;9.96;55.43;96934.50;5070808;28;20024;-65
2022/02/08 15:27:39;;;;;;;2.17;0.60;;;;;;;9.96;59.26;96925.63;5091639;28;20506;-66
2022/02/08 15:30:07;;;;;;;2.58;0.77;;;;;;;9.88;60.39;96935.59;5073044;28;20617;-65
2022/02/08 15:32:34;;;;;;;1.73;0.75;;;;;;;9.80;57.38;96933.16;5089348;28;20470;-66
2022/02/08 15:35:00;;;;;;;1.33;0.68;;;;;;;9.70;57.96;96930.13;5092404;28;20052;-66
2022/02/08 15:37:30;;;;;;;1.25;0.55;;;;;;;9.56;57.00;96934.72;5092525;28;20035;-65
2022/02/08 15:39:56;;;;;;;4.45;0.60;;;;;;;9.49;60.75;96928.56;5093891;28;20020;-65
2022/02/08 15:42:29;;;;;;;4.28;0.88;;;;;;;9.40;60.03;96926.34;5090262;28;20032;-65
2022/02/08 15:44:56;;;;;;;1.20;0.63;;;;;;;9.29;62.11;96925.97;5090942;28;20042;-66
2022/02/08 15:47:22;;;;;;;1.98;0.77;;;;;;;9.21;65.16;96926.22;5071555;28;20024;-66
2022/02/08 15:49:56;;;;;;;0.98;0.60;;;;;;;9.09;66.87;96917.19;5073270;28;20028;-66
2022/02/08 15:53:00;;;;;;;1.13;0.70;;;;;;;8.96;68.40;96915.38;5090813;28;20414;-66
2022/02/08 15:55:28;;;;;;;3.25;0.80;;;;;;;8.83;70.66;96909.25;5091421;28;20039;-66
2022/02/08 15:58:06;;;;;;;2.10;0.80;;;;;;;8.62;70.65;96913.00;5092325;28;20055;-65
2022/02/08 16:00:50;;;;;;;1.95;0.75;;;;;;;8.46;72.04;96906.22;5092271;28;20032;-66
2022/02/08 16:08:57;;;;;;;0.93;0.60;;;;;;;8.12;78.02;96892.03;5097795;28;20084;-65
2022/02/08 16:14:07;;;;;;;1.13;0.80;;;;;;;7.93;80.48;96892.03;5088995;28;20035;-66
2022/02/08 16:19:26;;;;;;;1.63;0.80;;;;;;;7.70;85.23;96871.03;5101166;28;20047;-66
2022/02/08 17:00:59;;;;;;;1.85;0.70;;;;;;;3.59;100.00;96685.31;5093163;28;20077;-66
2022/02/08 17:03:29;;;;;;;4.85;0.82;;;;;;;3.45;100.00;96671.03;5095931;28;20474;-66
2022/02/08 17:05:54;;;;;;;3.53;0.93;;;;;;;3.28;100.00;96654.50;5108242;28;20101;-66
2022/02/08 17:08:22;;;;;;;1.83;0.80;;;;;;;3.15;100.00;96647.19;5059996;28;20549;-66
2022/02/08 17:10:50;;;;;;;0.90;0.68;;;;;;;3.01;100.00;96655.06;5077184;28;20052;-66
2022/02/08 17:16:30;;;;;;;1.30;0.75;;;;;;;2.75;100.00;96643.06;5078269;28;20031;-66
2022/02/08 17:46:08;;;;;;;6.95;1.00;;;;;;;2.54;100.00;96711.66;5079279;28;20046;-65
2022/02/08 17:48:36;;;;;;;2.03;0.85;;;;;;;2.44;100.00;96713.69;5092784;28;20045;-66
2022/02/08 17:51:02;;;;;;;3.58;0.80;;;;;;;2.36;100.00;96697.88;5092663;28;20063;-63
2022/02/08 17:53:28;;;;;;;4.47;1.17;;;;;;;2.28;100.00;96698.75;5090544;28;20028;-65
2022/02/08 17:55:53;;;;;;;3.53;1.20;;;;;;;2.23;100.00;96695.81;5097844;28;20031;-64
2022/02/08 17:58:20;;;;;;;1.33;0.95;;;;;;;2.19;100.00;96678.66;5101128;28;20558;-64
2022/02/08 18:00:46;;;;;;;4.22;0.98;;;;;;;2.09;100.00;96672.75;5100205;28;20032;-65
2022/02/08 18:03:14;;;;;;;3.47;1.05;;;;;;;1.99;100.00;96668.50;5085792;28;20080;-64
2022/02/08 18:05:44;;;;;;;4.25;1.23;;;;;;;1.89;100.00;96673.16;5077228;28;20020;-66
2022/02/08 18:08:14;;;;;;;2.08;1.23;;;;;;;1.86;100.00;96665.59;5094244;28;20035;-66
2022/02/08 18:10:48;;;;;;;3.47;1.02;;;;;;;1.82;100.00;96661.63;5085393;28;20167;-66
2022/02/08 18:13:16;;;;;;;1.48;0.80;;;;;;;1.77;100.00;96657.88;5069803;28;20047;-66
2022/02/08 18:15:42;;;;;;;2.38;0.85;;;;;;;1.72;100.00;96645.16;5091655;28;20042;-62
2022/02/08 18:18:19;;;;;;;2.80;1.02;;;;;;;1.62;100.00;96639.25;5073283;28;20024;-66
2022/02/08 18:20:50;;;;;;;2.00;1.00;;;;;;;1.51;100.00;96621.97;5093484;28;20042;-65
2022/02/08 18:55:31;;;;;;;2.42;0.90;;;;;;;0.60;100.00;96458.00;5091006;28;20059;-65
2022/02/08 18:56:46;;;;;;;4.00;1.08;;;;;;;0.50;100.00;96445.84;5089384;28;20096;-66
2022/02/08 19:11:56;;;;;;;1.15;0.90;;;;;;;0.42;100.00;96395.75;5112921;28;20034;-65
2022/02/08 19:22:06;;;;;;;4.25;1.52;;;;;;;0.75;100.00;96411.47;5092318;28;20117;-66
2022/02/08 19:24:32;;;;;;;2.25;1.30;;;;;;;0.81;100.00;96429.25;5070301;28;20368;-65
2022/02/08 19:27:00;;;;;;;3.30;1.52;;;;;;;0.88;100.00;96424.13;5091954;28;20030;-66
2022/02/08 19:29:29;;;;;;;2.10;1.52;;;;;;;0.92;100.00;96431.53;5105348;28;20488;-65
2022/02/08 19:31:58;;;;;;;2.08;1.17;;;;;;;0.91;100.00;96426.41;5112164;28;20023;-66
2022/02/08 19:34:26;;;;;;;2.40;1.15;;;;;;;0.82;100.00;96426.44;5097125;22;20016;-69
2022/02/08 19:36:53;;;;;;;1.55;0.90;;;;;;;0.77;100.00;96431.44;5050053;28;20111;-69
2022/02/08 19:39:24;;;;;;;3.30;1.13;;;;;;;0.70;100.00;96434.91;5051084;28;20112;-68
2022/02/08 19:41:50;;;;;;;2.85;1.00;;;;;;;0.62;100.00;96425.19;5033516;28;20053;-68
2022/02/08 19:44:17;;;;;;;2.67;1.10;;;;;;;0.52;100.00;96422.75;5054278;28;20502;-69
2022/02/08 19:46:47;;;;;;;2.50;1.00;;;;;;;0.45;100.00;96413.91;5055302;28;20065;-68
2022/02/08 19:49:13;;;;;;;1.80;1.10;;;;;;;0.40;100.00;96408.28;5049668;28;20473;-69
2022/02/08 19:51:48;;;;;;;1.58;0.95;;;;;;;0.38;100.00;96405.00;5053497;28;20063;-68
2022/02/08 19:54:20;;;;;;;1.98;1.10;;;;;;;0.33;100.00;96398.63;5058696;28;20577;-68
2022/02/08 19:59:40;;;;;;;3.65;1.33;;;;;;;0.28;100.00;96378.03;5051595;28;20499;-68
2022/02/08 20:02:11;;;;;;;3.05;1.25;;;;;;;0.21;100.00;96380.50;5033289;28;20029;-69
2022/02/08 20:04:48;;;;;;;4.53;1.10;;;;;;;0.07;100.00;96373.31;5051198;28;20056;-69
2022/02/08 20:07:17;;;;;;;2.45;1.20;;;;;;;-0.02;100.00;96355.88;5051256;28;20021;-69
2022/02/08 20:09:45;;;;;;;2.15;0.93;;;;;;;-0.09;100.00;96354.91;5033459;28;20036;-68
2022/02/08 20:12:10;;;;;;;3.88;0.90;;;;;;;-0.12;100.00;96342.06;5016934;28;20407;-68
2022/02/08 20:14:36;;;;;;;2.47;0.90;;;;;;;-0.17;100.00;96334.66;5051093;28;20043;-68
2022/02/08 20:17:02;;;;;;;2.92;1.20;;;;;;;-0.21;100.00;96324.66;5046484;28;20021;-69
2022/02/08 20:19:30;;;;;;;4.18;1.30;;;;;;;-0.23;100.00;96321.34;5051246;28;20033;-68
2022/02/08 20:22:02;;;;;;;3.50;1.20;;;;;;;-0.26;100.00;96322.50;5050779;28;20075;-68
2022/02/08 20:24:30;;;;;;;1.42;1.27;;;;;;;-0.32;100.00;96318.75;5033655;28;20418;-68
2022/02/08 20:29:26;;;;;;;2.25;1.02;;;;;;;-0.29;100.00;96317.56;5033997;28;20036;-68
2022/02/08 20:31:52;;;;;;;3.38;1.40;;;;;;;-0.23;100.00;96309.00;5050787;28;20048;-68
2022/02/08 20:34:20;;;;;;;2.75;1.17;;;;;;;-0.17;100.00;96302.25;5050632;28;20025;-68
2022/02/08 20:36:47;;;;;;;2.17;1.23;;;;;;;-0.12;100.00;96302.56;5033002;28;20060;-68
2022/02/08 20:39:16;;;;;;;3.75;1.20;;;;;;;-0.16;100.00;96299.44;5033519;28;20111;-68
2022/02/08 20:41:42;;;;;;;1.92;1.30;;;;;;;-0.28;100.00;96292.88;5050955;28;20025;-68
2022/02/08 20:44:16;;;;;;;4.40;1.55;;;;;;;-0.37;100.00;96286.81;5050834;28;20029;-68
2022/02/08 20:46:49;;;;;;;3.10;1.38;;;;;;;-0.39;100.00;96287.97;5022311;28;20033;-69
2022/02/08 20:49:14;;;;;;;2.25;1.30;;;;;;;-0.42;100.00;96275.16;5042257;28;20036;-69
2022/02/08 20:51:43;;;;;;;2.47;1.10;;;;;;;-0.47;100.00;96269.56;5048382;28;20020;-68
2022/02/08 20:54:08;;;;;;;2.90;1.35;;;;;;;-0.54;100.00;96271.22;5050640;28;20016;-68
2022/02/08 20:56:35;;;;;;;3.70;1.48;;;;;;;-0.61;100.00;96265.81;5050739;28;20037;-69
2022/02/08 20:59:08;;;;;;;4.72;1.48;;;;;;;-0.69;100.00;96252.66;5046122;28;20083;-68
2022/02/08 21:01:37;;;;;;;3.63;1.10;;;;;;;-0.75;100.00;96243.63;5048065;28;20028;-68
2022/02/08 21:04:55;;;;;;;2.35;1.17;;;;;;;-0.81;100.00;96233.75;5053533;28;20029;-68
2022/02/08 21:06:56;;;;;;;2.28;1.45;;;;;;;-0.88;100.00;96230.13;5044912;28;20036;-68
2022/02/08 21:09:24;;;;;;;2.88;1.00;;;;;;;-0.91;100.00;96233.09;5054115;28;20056;-68
2022/02/08 21:11:55;;;;;;;3.20;1.20;;;;;;;-0.93;100.00;96229.81;5035392;28;20028;-68
2022/02/08 21:14:21;;;;;;;3.45;1.50;;;;;;;-0.93;100.00;96232.44;5051018;28;20067;-68
2022/02/08 21:16:54;;;;;;;3.28;1.30;;;;;;;-0.90;100.00;96232.13;5047407;28;20033;-68
2022/02/08 21:19:27;;;;;;;2.13;1.33;;;;;;;-0.89;100.00;96233.75;5053711;28;20100;-68
2022/02/08 21:21:56;;;;;;;1.52;1.02;;;;;;;-0.89;100.00;96237.22;5048742;28;20025;-68
2022/02/08 21:24:26;;;;;;;3.13;1.38;;;;;;;-0.86;100.00;96232.63;5049081;28;20438;-68
2022/02/08 21:26:57;;;;;;;2.53;1.13;;;;;;;-0.87;100.00;96221.25;5053889;28;20103;-68
2022/02/08 21:32:48;;;;;;;1.38;1.00;;;;;;;-0.98;100.00;96222.44;5047855;28;20059;-68
2022/02/08 21:51:40;;;;;;;2.10;1.10;;;;;;;-0.65;100.00;96214.50;5052787;28;20082;-68
2022/02/08 21:54:05;;;;;;;2.42;1.48;;;;;;;-0.69;100.00;96200.84;5050980;28;20029;-68
2022/02/08 21:56:33;;;;;;;1.40;1.00;;;;;;;-0.71;100.00;96204.66;5032796;28;20083;-68
2022/02/08 21:59:07;;;;;;;1.92;1.20;;;;;;;-0.70;100.00;96199.22;5054325;28;20029;-69
2022/02/08 22:01:32;;;;;;;2.15;1.33;;;;;;;-0.72;100.00;96195.94;5036063;28;20025;-69
2022/02/08 22:04:00;;;;;;;2.40;1.20;;;;;;;-0.77;100.00;96194.78;5054030;28;20090;-68
2022/02/08 22:06:27;;;;;;;3.50;1.35;;;;;;;-0.73;100.00;96190.84;5054230;28;20468;-68
2022/02/08 22:08:57;;;;;;;3.28;1.60;;;;;;;-0.69;100.00;96189.50;5054130;28;20032;-68
2022/02/08 22:22:24;;;;;;;4.22;1.20;;;;;;;-0.66;100.00;96178.63;5054109;28;20483;-68
2022/02/08 22:25:34;;;;;;;2.88;1.15;;;;;;;-0.74;100.00;96181.31;5053885;28;20044;-68
2022/02/08 22:27:54;;;;;;;7.57;1.33;;;;;;;-0.73;100.00;96185.59;5050569;28;20552;-68
2022/02/08 22:30:45;;;;;;;3.63;1.40;;;;;;;-0.70;100.00;96180.78;5053625;28;20035;-68
2022/02/08 22:33:13;;;;;;;3.58;1.40;;;;;;;-0.76;100.00;96183.25;5035703;28;20029;-68
2022/02/08 22:35:42;;;;;;;1.40;0.82;;;;;;;-0.81;100.00;96191.66;5035329;28;20407;-68
2022/02/08 22:38:35;;;;;;;1.33;0.93;;;;;;;-0.84;100.00;96191.19;5053429;28;20044;-69
2022/02/08 22:41:09;;;;;;;2.50;1.10;;;;;;;-0.87;100.00;96187.06;5053499;28;20025;-68
2022/02/08 22:43:44;;;;;;;3.33;1.05;;;;;;;-0.86;100.00;96182.66;5053041;28;20462;-69
2022/02/08 22:46:12;;;;;;;1.35;0.90;;;;;;;-0.85;100.00;96193.00;5053390;28;20033;-69
2022/02/08 22:48:46;;;;;;;2.92;1.35;;;;;;;-0.86;100.00;96190.53;5053298;28;20028;-69
2022/02/08 22:51:11;;;;;;;2.67;1.15;;;;;;;-0.94;100.00;96194.00;5053219;28;20024;-69
2022/02/08 22:53:40;;;;;;;3.58;1.02;;;;;;;-1.03;100.00;96206.31;5053045;28;20021;-69
2022/02/08 22:56:05;;;;;;;3.63;1.08;;;;;;;-1.13;100.00;96203.03;5035014;28;20563;-68
2022/02/08 22:58:38;;;;;;;3.17;0.93;;;;;;;-1.23;100.00;96200.56;5035282;28;20116;-68
2022/02/08 23:01:07;;;;;;;3.78;1.48;;;;;;;-1.27;100.00;96204.53;5052986;28;20188;-69
2022/02/08 23:03:32;;;;;;;3.72;1.20;;;;;;;-1.33;100.00;96210.44;5053056;28;20491;-69
2022/02/08 23:06:00;;;;;;;3.83;1.23;;;;;;;-1.38;100.00;96201.41;5052910;28;20031;-68
2022/02/08 23:08:25;;;;;;;1.95;1.25;;;;;;;-1.41;100.00;96202.56;5052028;28;20395;-68
2022/02/08 23:13:45;;;;;;;2.30;1.08;;;;;;;-1.44;100.00;96196.78;5054367;28;20029;-68
2022/02/08 23:16:40;;;;;;;2.42;1.27;;;;;;;-1.44;100.00;96196.78;5051646;28;20025;-68
2022/02/08 23:38:27;;;;;;;3.40;1.25;;;;;;;-1.69;100.00;96214.31;5051005;28;20561;-68
2022/02/08 23:40:52;;;;;;;2.65;1.38;;;;;;;-1.69;100.00;96217.78;5051657;28;20032;-68
2022/02/08 23:43:21;;;;;;;2.22;1.20;;;;;;;-1.69;100.00;96222.22;5051589;28;20027;-68
2022/02/08 23:45:49;;;;;;;1.88;1.00;;;;;;;-1.70;100.00;96226.63;5051463;28;20037;-68
2022/02/08 23:48:22;;;;;;;2.05;1.23;;;;;;;-1.72;100.00;96212.84;5033336;28;20037;-68
2022/02/08 23:50:53;;;;;;;;;;;;;;;-1.76;100.00;96220.22;5052045;28;20031;-68
2022/02/08 23:53:40;;;;;;;1.63;1.00;;;;;;;-1.80;100.00;96232.03;5051844;28;19909;-68
2022/02/08 23:56:15;;;;;;;3.63;1.10;;;;;;;-1.80;100.00;96232.03;5051342;28;20029;-68
2022/02/08 23:58:42;;;;;;;2.75;1.13;;;;;;;-1.80;100.00;96234.66;5033127;28;20045;-68
